Time;durP1;ratioP1;P1;durP2;ratioP2;P2;SDS_P1;SDS_P2;PMS_P1;PMS_P2;Temp;Humidity;BMP_temperature;BMP_pressure;BME280_temperature;BME280_humidity;BME280_pressure;Samples;Min_cycle;Max_cycle;Signal;HPM_P1;HPM_P2
2024/03/11 00:01:44;;;;;;;30.65;14.35;;;;;;;;;;5069711;28;20068;-66
2024/03/11 00:04:11;;;;;;;27.40;13.65;;;;;;;;;;5042920;28;20055;-66
2024/03/11 00:06:41;;;;;;;31.02;13.85;;;;;;;;;;5077436;27;20142;-66
2024/03/11 00:09:15;;;;;;;29.70;14.35;;;;;;;;;;5069514;28;20052;-68
2024/03/11 00:11:48;;;;;;;32.95;14.60;;;;;;;;;;5073039;28;20332;-65
2024/03/11 00:14:16;;;;;;;30.40;13.20;;;;;;;;;;5064878;28;20443;-66
2024/03/11 00:16:46;;;;;;;31.15;13.07;;;;;;;;;;5060493;28;20148;-66
2024/03/11 00:19:13;;;;;;;32.00;14.48;;;;;;;;;;5057498;28;20057;-66
2024/03/11 00:21:40;;;;;;;30.42;13.82;;;;;;;;;;5056506;28;20171;-65
2024/03/11 00:24:07;;;;;;;30.67;14.23;;;;;;;;;;5051516;28;20161;-64
2024/03/11 00:26:35;;;;;;;26.08;13.30;;;;;;;;;;5059159;28;20068;-62
2024/03/11 00:29:04;;;;;;;33.63;14.30;;;;;;;;;;5059949;28;20060;-65
2024/03/11 00:31:32;;;;;;;35.65;14.68;;;;;;;;;;5057142;28;20372;-64
2024/03/11 00:33:59;;;;;;;38.22;18.00;;;;;;;;;;5053620;28;20070;-64
2024/03/11 00:36:26;;;;;;;48.40;20.15;;;;;;;;;;5060292;28;20066;-63
2024/03/11 00:38:53;;;;;;;34.95;14.68;;;;;;;;;;5060879;28;20052;-64
2024/03/11 00:41:20;;;;;;;33.15;13.95;;;;;;;;;;5069804;28;20099;-67
2024/03/11 00:43:47;;;;;;;33.80;14.47;;;;;;;;;;5058104;28;20052;-67
2024/03/11 00:46:15;;;;;;;30.90;14.02;;;;;;;;;;5057571;28;20219;-65
2024/03/11 00:48:43;;;;;;;28.55;13.32;;;;;;;;;;5057534;28;20060;-66
2024/03/11 00:51:10;;;;;;;32.53;14.13;;;;;;;;;;5055000;28;20052;-68
2024/03/11 00:53:37;;;;;;;35.17;14.90;;;;;;;;;;5066803;28;20048;-66
2024/03/11 00:56:06;;;;;;;32.00;13.95;;;;;;;;;;5058198;28;20326;-66
2024/03/11 00:58:34;;;;;;;32.50;14.38;;;;;;;;;;5074625;28;20060;-63
2024/03/11 01:01:01;;;;;;;31.35;14.23;;;;;;;;;;5075482;28;20063;-64
2024/03/11 01:03:30;;;;;;;33.92;14.13;;;;;;;;;;5049218;28;20056;-63
2024/03/11 01:05:57;;;;;;;32.30;13.98;;;;;;;;;;5058796;28;20084;-64
2024/03/11 01:08:24;;;;;;;31.27;13.70;;;;;;;;;;5058943;28;20059;-63
2024/03/11 01:10:50;;;;;;;30.17;13.98;;;;;;;;;;5076865;28;20055;-64
2024/03/11 01:13:18;;;;;;;30.55;13.63;;;;;;;;;;5050065;28;20063;-65
2024/03/11 01:15:45;;;;;;;33.37;14.13;;;;;;;;;;5057198;28;20060;-64
2024/03/11 01:18:13;;;;;;;33.47;14.75;;;;;;;;;;5072390;28;20143;-63
2024/03/11 01:20:42;;;;;;;28.98;13.90;;;;;;;;;;5058411;28;20495;-65
2024/03/11 01:23:09;;;;;;;32.08;13.93;;;;;;;;;;5043993;28;20131;-63
2024/03/11 01:25:38;;;;;;;30.05;12.65;;;;;;;;;;5051038;28;21799;-64
2024/03/11 01:28:08;;;;;;;32.50;13.65;;;;;;;;;;5058509;28;20060;-64
2024/03/11 01:30:34;;;;;;;31.65;14.45;;;;;;;;;;5074280;28;20596;-64
2024/03/11 01:33:04;;;;;;;32.05;14.75;;;;;;;;;;5054284;28;20152;-65
2024/03/11 01:35:31;;;;;;;36.72;15.05;;;;;;;;;;5055158;28;20059;-66
2024/03/11 01:37:59;;;;;;;28.85;14.18;;;;;;;;;;5059517;28;20113;-65
2024/03/11 01:40:27;;;;;;;37.35;14.07;;;;;;;;;;5057967;28;20056;-64
2024/03/11 01:42:54;;;;;;;34.45;15.18;;;;;;;;;;5047572;28;20056;-65
2024/03/11 01:45:24;;;;;;;31.42;14.18;;;;;;;;;;5040243;28;20048;-65
2024/03/11 01:47:53;;;;;;;33.13;14.95;;;;;;;;;;5057220;28;20060;-66
2024/03/11 01:50:19;;;;;;;;;;;;;;;;;;5057319;28;20154;-64
2024/03/11 01:52:49;;;;;;;32.60;13.02;;;;;;;;;;5054445;28;20028;-66
2024/03/11 01:55:19;;;;;;;36.67;14.30;;;;;;;;;;5047846;28;20052;-65
2024/03/11 01:57:46;;;;;;;31.80;13.52;;;;;;;;;;5058695;28;20052;-65
2024/03/11 02:00:14;;;;;;;30.95;13.98;;;;;;;;;;5058404;28;20140;-65
2024/03/11 02:02:40;;;;;;;28.77;13.82;;;;;;;;;;5056275;28;20048;-65
2024/03/11 02:05:13;;;;;;;31.10;13.88;;;;;;;;;;5035964;28;20064;-65
2024/03/11 02:07:42;;;;;;;58.65;25.17;;;;;;;;;;5056715;28;20056;-66
2024/03/11 02:10:13;;;;;;;67.03;29.73;;;;;;;;;;5057244;28;20053;-63
2024/03/11 02:12:41;;;;;;;52.92;22.40;;;;;;;;;;5056800;28;20068;-66
2024/03/11 02:15:12;;;;;;;56.40;24.70;;;;;;;;;;5044946;28;20131;-65
2024/03/11 02:17:39;;;;;;;45.22;18.17;;;;;;;;;;5056747;28;20082;-66
2024/03/11 02:20:15;;;;;;;34.22;14.80;;;;;;;;;;5055982;28;20063;-64
2024/03/11 02:22:45;;;;;;;30.05;13.32;;;;;;;;;;5072859;28;20151;-65
2024/03/11 02:25:15;;;;;;;31.33;13.82;;;;;;;;;;5052611;28;20131;-65
2024/03/11 02:27:42;;;;;;;33.08;13.90;;;;;;;;;;5056949;28;20060;-65
2024/03/11 02:30:10;;;;;;;30.70;13.85;;;;;;;;;;5074062;28;20051;-64
2024/03/11 02:32:37;;;;;;;34.20;14.23;;;;;;;;;;5057437;28;20055;-65
2024/03/11 02:35:05;;;;;;;39.22;16.55;;;;;;;;;;5034551;28;20076;-65
2024/03/11 02:37:33;;;;;;;33.20;14.70;;;;;;;;;;5054902;28;20092;-64
2024/03/11 02:40:02;;;;;;;32.15;14.35;;;;;;;;;;5057528;28;20052;-66
2024/03/11 02:42:31;;;;;;;32.67;13.88;;;;;;;;;;5057050;28;20044;-66
2024/03/11 02:44:58;;;;;;;35.47;14.60;;;;;;;;;;5031277;28;20269;-66
2024/03/11 02:47:26;;;;;;;34.90;15.02;;;;;;;;;;5051043;28;20080;-66
2024/03/11 02:49:53;;;;;;;32.55;14.43;;;;;;;;;;5056015;28;20118;-65
2024/03/11 02:52:21;;;;;;;30.75;13.80;;;;;;;;;;5057738;28;20055;-66
2024/03/11 02:54:48;;;;;;;30.70;13.98;;;;;;;;;;5050694;28;20048;-65
2024/03/11 02:57:15;;;;;;;30.27;13.55;;;;;;;;;;5049430;28;20052;-66
2024/03/11 02:59:43;;;;;;;29.30;12.40;;;;;;;;;;5057321;28;20144;-65
2024/03/11 03:02:10;;;;;;;38.13;14.85;;;;;;;;;;5011131;28;20113;-66
2024/03/11 03:04:39;;;;;;;34.65;14.13;;;;;;;;;;5056095;28;20949;-66
2024/03/11 03:07:06;;;;;;;29.63;13.90;;;;;;;;;;5058889;28;20063;-66
2024/03/11 03:09:33;;;;;;;34.20;15.00;;;;;;;;;;5054658;28;20056;-66
2024/03/11 03:12:02;;;;;;;29.67;13.98;;;;;;;;;;5051012;28;21102;-66
2024/03/11 03:14:30;;;;;;;34.10;13.90;;;;;;;;;;5058604;28;20270;-66
2024/03/11 03:16:58;;;;;;;33.05;14.80;;;;;;;;;;5055529;28;20057;-66
2024/03/11 03:19:25;;;;;;;;;;;;;;;;;;5067564;28;20153;-66
2024/03/11 03:21:52;;;;;;;35.00;13.15;;;;;;;;;;5051239;28;19940;-66
2024/03/11 03:24:18;;;;;;;32.22;13.35;;;;;;;;;;5056404;28;20114;-67
2024/03/11 03:26:45;;;;;;;33.80;13.95;;;;;;;;;;5056562;28;20060;-67
2024/03/11 03:29:12;;;;;;;30.77;14.43;;;;;;;;;;5054803;28;20101;-67
2024/03/11 03:31:39;;;;;;;32.92;14.55;;;;;;;;;;5038776;28;20060;-64
2024/03/11 03:34:09;;;;;;;40.30;18.95;;;;;;;;;;5073880;28;20198;-63
2024/03/11 03:36:36;;;;;;;80.20;33.35;;;;;;;;;;5056953;28;20067;-65
2024/03/11 03:39:03;;;;;;;68.13;28.98;;;;;;;;;;5056124;28;20262;-66
2024/03/11 03:41:30;;;;;;;45.75;18.17;;;;;;;;;;5039519;28;20179;-66
2024/03/11 03:43:58;;;;;;;38.55;15.68;;;;;;;;;;5055050;28;20125;-65
2024/03/11 03:46:25;;;;;;;42.67;17.77;;;;;;;;;;5055281;28;20088;-64
2024/03/11 03:48:52;;;;;;;37.45;17.20;;;;;;;;;;5059756;28;20065;-66
2024/03/11 03:51:20;;;;;;;41.15;16.40;;;;;;;;;;5041049;28;20048;-65
2024/03/11 03:53:48;;;;;;;39.15;15.23;;;;;;;;;;5058890;28;20066;-65
2024/03/11 03:56:15;;;;;;;34.60;15.25;;;;;;;;;;5060826;28;20055;-66
2024/03/11 03:58:42;;;;;;;34.38;15.40;;;;;;;;;;5059956;28;20056;-65
2024/03/11 04:01:17;;;;;;;33.53;14.85;;;;;;;;;;5057016;28;20058;-65
2024/03/11 04:03:43;;;;;;;32.60;14.10;;;;;;;;;;5057503;28;20197;-63
2024/03/11 04:06:10;;;;;;;37.88;15.27;;;;;;;;;;5059167;28;20348;-64
2024/03/11 04:08:38;;;;;;;33.70;13.90;;;;;;;;;;5057952;28;20084;-64
2024/03/11 04:11:05;;;;;;;32.05;15.30;;;;;;;;;;5054734;28;20075;-64
2024/03/11 04:13:32;;;;;;;30.80;13.77;;;;;;;;;;5056109;28;20138;-65
2024/03/11 04:15:58;;;;;;;29.92;13.27;;;;;;;;;;5076846;28;20056;-64
2024/03/11 04:18:25;;;;;;;33.35;15.23;;;;;;;;;;5061203;28;20059;-66
2024/03/11 04:20:55;;;;;;;31.67;14.00;;;;;;;;;;5057765;28;20116;-65
2024/03/11 04:23:26;;;;;;;37.05;14.45;;;;;;;;;;5056404;28;20052;-66
2024/03/11 04:25:54;;;;;;;32.55;14.45;;;;;;;;;;5077004;28;20112;-65
2024/03/11 04:28:21;;;;;;;;;;;;;;;;;;5063083;28;20906;-64
2024/03/11 04:30:48;;;;;;;33.17;13.80;;;;;;;;;;5059582;28;20261;-64
2024/03/11 04:33:17;;;;;;;26.40;12.98;;;;;;;;;;5044845;28;20056;-64
2024/03/11 04:35:48;;;;;;;33.35;14.27;;;;;;;;;;5056742;28;20056;-64
2024/03/11 04:38:15;;;;;;;30.15;13.93;;;;;;;;;;5059243;28;20048;-63
2024/03/11 04:40:43;;;;;;;36.53;14.93;;;;;;;;;;5059913;28;20056;-65
2024/03/11 04:43:11;;;;;;;;;;;;;;;;;;5056214;28;20095;-65
2024/03/11 04:45:39;;;;;;;26.65;11.07;;;;;;;;;;5054968;28;19959;-65
2024/03/11 04:48:08;;;;;;;30.63;13.98;;;;;;;;;;5058886;28;20127;-65
2024/03/11 04:50:37;;;;;;;33.20;14.85;;;;;;;;;;5059229;28;20056;-65
2024/03/11 04:53:05;;;;;;;30.30;14.57;;;;;;;;;;5055062;28;20068;-63
2024/03/11 04:55:33;;;;;;;36.95;13.88;;;;;;;;;;5056777;28;20130;-65
2024/03/11 04:58:01;;;;;;;31.00;14.27;;;;;;;;;;5058037;28;20060;-63
2024/03/11 05:00:30;;;;;;;31.50;14.30;;;;;;;;;;5058829;28;20055;-63
2024/03/11 05:02:58;;;;;;;31.40;15.13;;;;;;;;;;5056535;28;20116;-63
2024/03/11 05:05:25;;;;;;;33.70;13.75;;;;;;;;;;5070512;28;20048;-65
2024/03/11 05:07:52;;;;;;;32.40;14.25;;;;;;;;;;5075962;28;20056;-63
2024/03/11 05:10:19;;;;;;;32.92;14.05;;;;;;;;;;5074688;28;20054;-64
2024/03/11 05:12:47;;;;;;;32.67;14.05;;;;;;;;;;5000854;28;20130;-62
2024/03/11 05:15:16;;;;;;;38.37;15.53;;;;;;;;;;5054446;28;20174;-62
2024/03/11 05:17:45;;;;;;;33.78;15.10;;;;;;;;;;5054781;28;20075;-64
2024/03/11 05:20:14;;;;;;;37.97;15.18;;;;;;;;;;5057124;28;20158;-64
2024/03/11 05:22:41;;;;;;;30.70;13.48;;;;;;;;;;5044479;28;20056;-65
2024/03/11 05:25:08;;;;;;;31.90;14.60;;;;;;;;;;5058564;28;20131;-64
2024/03/11 05:27:35;;;;;;;30.50;14.00;;;;;;;;;;5052471;28;20281;-64
2024/03/11 05:30:04;;;;;;;33.85;15.05;;;;;;;;;;5059019;28;20041;-62
2024/03/11 05:32:31;;;;;;;31.77;14.20;;;;;;;;;;5053032;28;20075;-63
2024/03/11 05:34:59;;;;;;;35.33;14.25;;;;;;;;;;5059297;28;21021;-63
2024/03/11 05:37:29;;;;;;;32.70;14.43;;;;;;;;;;5049675;28;20054;-64
2024/03/11 05:39:58;;;;;;;36.55;14.85;;;;;;;;;;5054641;28;20048;-63
2024/03/11 05:42:25;;;;;;;35.70;14.73;;;;;;;;;;5046969;28;20047;-64
2024/03/11 05:44:52;;;;;;;35.58;14.75;;;;;;;;;;5053148;28;20080;-63
2024/03/11 05:47:24;;;;;;;37.33;15.07;;;;;;;;;;5051908;28;20052;-64
2024/03/11 05:49:51;;;;;;;34.72;15.02;;;;;;;;;;5053626;28;20048;-63
2024/03/11 05:52:20;;;;;;;35.60;15.05;;;;;;;;;;5034621;28;20048;-65
2024/03/11 05:54:50;;;;;;;32.42;14.73;;;;;;;;;;5054812;28;20060;-64
2024/03/11 05:57:22;;;;;;;33.38;14.80;;;;;;;;;;5049826;28;20044;-62
2024/03/11 05:59:50;;;;;;;35.80;14.65;;;;;;;;;;5053519;28;20056;-63
2024/03/11 06:02:17;;;;;;;41.10;15.73;;;;;;;;;;5043106;28;20048;-63
2024/03/11 06:04:45;;;;;;;33.83;15.18;;;;;;;;;;5058709;28;20321;-63
2024/03/11 06:07:12;;;;;;;34.75;14.80;;;;;;;;;;5056968;28;20109;-63
2024/03/11 06:09:40;;;;;;;34.08;15.30;;;;;;;;;;5052037;28;20143;-63
2024/03/11 06:12:07;;;;;;;32.53;14.65;;;;;;;;;;5062518;28;20071;-63
2024/03/11 06:14:36;;;;;;;30.75;13.77;;;;;;;;;;5054451;28;20060;-64
2024/03/11 06:17:06;;;;;;;32.70;14.23;;;;;;;;;;5053768;28;20210;-65
2024/03/11 06:19:32;;;;;;;31.90;14.68;;;;;;;;;;5047235;28;20068;-64
2024/03/11 06:21:59;;;;;;;30.63;14.65;;;;;;;;;;5048542;28;20053;-64
2024/03/11 06:24:28;;;;;;;29.45;14.15;;;;;;;;;;5052774;28;20082;-64
2024/03/11 06:26:56;;;;;;;30.05;13.75;;;;;;;;;;5055123;28;20068;-63
2024/03/11 06:29:24;;;;;;;34.92;15.77;;;;;;;;;;5049293;28;20063;-65
2024/03/11 06:31:52;;;;;;;34.13;15.68;;;;;;;;;;5043645;28;20129;-64
2024/03/11 06:34:21;;;;;;;;;;;;;;;;;;5054565;28;20055;-63
2024/03/11 06:36:48;;;;;;;;;;;;;;;;;;5057971;28;20011;-64
2024/03/11 06:39:21;;;;;;;31.55;12.35;;;;;;;;;;5049585;28;19996;-63
2024/03/11 06:41:48;;;;;;;29.95;13.30;;;;;;;;;;5029751;28;20262;-64
2024/03/11 06:44:17;;;;;;;33.95;14.68;;;;;;;;;;5053504;28;20060;-63
2024/03/11 06:46:44;;;;;;;33.20;14.23;;;;;;;;;;5053131;28;20051;-64
2024/03/11 06:49:13;;;;;;;29.67;14.02;;;;;;;;;;5055059;28;20056;-64
2024/03/11 06:51:40;;;;;;;31.73;13.82;;;;;;;;;;5044717;28;20283;-63
2024/03/11 06:54:09;;;;;;;35.22;15.55;;;;;;;;;;5053750;28;20055;-64
2024/03/11 06:56:38;;;;;;;30.88;13.82;;;;;;;;;;5075195;28;20164;-63
2024/03/11 06:59:05;;;;;;;32.58;13.68;;;;;;;;;;5059599;28;20123;-63
2024/03/11 07:01:33;;;;;;;30.38;13.70;;;;;;;;;;5035267;28;20955;-63
2024/03/11 07:04:01;;;;;;;30.52;14.25;;;;;;;;;;5057140;28;20142;-63
2024/03/11 07:06:27;;;;;;;27.35;13.23;;;;;;;;;;5072469;28;20201;-63
2024/03/11 07:08:57;;;;;;;32.75;14.82;;;;;;;;;;5057567;28;20200;-63
2024/03/11 07:11:24;;;;;;;32.50;14.15;;;;;;;;;;5047764;28;20051;-65
2024/03/11 07:13:54;;;;;;;29.83;13.25;;;;;;;;;;5056975;28;20121;-65
2024/03/11 07:16:21;;;;;;;32.63;14.38;;;;;;;;;;5055846;28;20198;-66
2024/03/11 07:18:53;;;;;;;29.50;13.82;;;;;;;;;;5058022;28;20144;-66
2024/03/11 07:21:20;;;;;;;36.55;13.90;;;;;;;;;;5047970;28;20060;-66
2024/03/11 07:23:49;;;;;;;34.95;15.18;;;;;;;;;;5060303;28;20233;-66
2024/03/11 07:26:16;;;;;;;32.30;13.23;;;;;;;;;;5059345;28;20059;-66
2024/03/11 07:28:44;;;;;;;31.00;14.32;;;;;;;;;;5060761;28;20078;-66
2024/03/11 07:31:11;;;;;;;33.70;14.57;;;;;;;;;;5056050;28;20182;-66
2024/03/11 07:33:39;;;;;;;31.42;13.80;;;;;;;;;;5047307;28;20064;-66
2024/03/11 07:36:08;;;;;;;30.60;14.23;;;;;;;;;;5064401;28;20072;-66
2024/03/11 07:38:35;;;;;;;31.42;13.93;;;;;;;;;;5058195;28;21095;-67
2024/03/11 07:41:02;;;;;;;30.30;14.50;;;;;;;;;;5061620;27;20060;-66
2024/03/11 07:43:29;;;;;;;33.80;14.88;;;;;;;;;;5054048;28;20052;-67
2024/03/11 07:45:56;;;;;;;31.42;15.30;;;;;;;;;;5061645;28;20208;-65
2024/03/11 07:48:22;;;;;;;32.67;13.85;;;;;;;;;;5058661;28;20106;-65
2024/03/11 07:50:49;;;;;;;34.30;13.60;;;;;;;;;;5059190;28;20148;-67
2024/03/11 07:53:18;;;;;;;30.65;14.43;;;;;;;;;;5044939;28;20143;-65
2024/03/11 07:55:47;;;;;;;34.38;13.75;;;;;;;;;;5055449;28;20056;-65
2024/03/11 07:58:14;;;;;;;31.55;14.55;;;;;;;;;;5058704;28;20052;-65
2024/03/11 08:00:42;;;;;;;31.85;14.07;;;;;;;;;;5059365;28;20261;-65
2024/03/11 08:03:14;;;;;;;33.97;15.23;;;;;;;;;;5043950;28;20064;-65
2024/03/11 08:05:41;;;;;;;33.63;13.60;;;;;;;;;;5056520;28;20056;-66
2024/03/11 08:08:08;;;;;;;32.00;13.50;;;;;;;;;;5061346;28;20087;-65
2024/03/11 08:10:37;;;;;;;32.60;14.65;;;;;;;;;;5056913;28;20060;-65
2024/03/11 08:13:04;;;;;;;34.65;13.93;;;;;;;;;;5047099;28;20079;-65
2024/03/11 08:15:32;;;;;;;32.97;14.43;;;;;;;;;;5057555;28;20048;-65
2024/03/11 08:17:59;;;;;;;32.03;13.50;;;;;;;;;;5060484;28;20048;-65
2024/03/11 08:20:31;;;;;;;35.37;14.33;;;;;;;;;;5075507;28;20053;-65
2024/03/11 08:22:58;;;;;;;26.45;13.07;;;;;;;;;;5054749;28;20051;-65
2024/03/11 08:25:31;;;;;;;31.42;13.68;;;;;;;;;;5055995;28;20071;-65
2024/03/11 08:27:59;;;;;;;27.17;13.25;;;;;;;;;;5059967;28;20048;-65
2024/03/11 08:30:27;;;;;;;30.70;12.38;;;;;;;;;;5075826;28;20056;-65
2024/03/11 08:32:57;;;;;;;28.45;11.23;;;;;;;;;;5056212;28;20064;-65
2024/03/11 08:35:24;;;;;;;27.85;12.98;;;;;;;;;;5055334;28;20075;-65
2024/03/11 08:37:51;;;;;;;33.72;14.57;;;;;;;;;;5057096;28;20067;-64
2024/03/11 08:40:19;;;;;;;28.60;12.10;;;;;;;;;;5057950;28;20888;-65
2024/03/11 08:42:47;;;;;;;28.65;12.45;;;;;;;;;;5047717;28;20057;-64
2024/03/11 08:45:22;;;;;;;25.15;12.07;;;;;;;;;;5060196;28;21013;-64
2024/03/11 08:47:56;;;;;;;25.40;12.07;;;;;;;;;;5058255;28;20067;-64
2024/03/11 08:50:22;;;;;;;31.75;11.57;;;;;;;;;;5059184;27;20143;-65
2024/03/11 08:52:49;;;;;;;26.98;12.55;;;;;;;;;;5054548;28;20128;-65
2024/03/11 08:55:18;;;;;;;24.65;12.07;;;;;;;;;;5053792;28;20128;-66
2024/03/11 08:57:46;;;;;;;27.52;12.27;;;;;;;;;;5059458;28;20182;-65
2024/03/11 09:00:15;;;;;;;29.60;13.00;;;;;;;;;;5074532;28;20059;-65
2024/03/11 09:02:47;;;;;;;27.90;12.60;;;;;;;;;;5005316;28;21144;-65
2024/03/11 09:05:20;;;;;;;33.65;13.45;;;;;;;;;;5067161;28;20284;-65
2024/03/11 09:07:47;;;;;;;30.08;13.73;;;;;;;;;;5057891;28;20067;-65
2024/03/11 09:10:15;;;;;;;30.58;12.50;;;;;;;;;;5058263;28;20070;-65
2024/03/11 09:12:42;;;;;;;29.88;13.75;;;;;;;;;;5041100;28;20154;-66
2024/03/11 09:15:15;;;;;;;30.05;12.98;;;;;;;;;;5061430;28;20064;-65
2024/03/11 09:17:45;;;;;;;30.27;12.98;;;;;;;;;;5058536;28;20048;-66
2024/03/11 09:20:15;;;;;;;31.23;13.80;;;;;;;;;;5059226;28;20194;-66
2024/03/11 09:22:46;;;;;;;30.02;12.38;;;;;;;;;;5031223;28;20148;-66
2024/03/11 09:25:19;;;;;;;33.55;14.02;;;;;;;;;;5054567;28;20036;-65
2024/03/11 09:27:48;;;;;;;39.15;14.25;;;;;;;;;;5057659;28;20170;-65
2024/03/11 09:30:17;;;;;;;31.92;13.60;;;;;;;;;;5073382;28;20079;-64
2024/03/11 09:32:45;;;;;;;;;;;;;;;;;;5038360;28;20062;-65
2024/03/11 09:35:22;;;;;;;;;;;;;;;;;;5075813;28;19935;-65
2024/03/11 09:37:51;;;;;;;42.95;17.33;;;;;;;;;;5058400;28;19935;-65
2024/03/11 09:40:19;;;;;;;37.10;16.50;;;;;;;;;;5074206;28;20159;-65
2024/03/11 09:42:48;;;;;;;40.92;16.55;;;;;;;;;;5051319;28;20053;-66
2024/03/11 09:45:19;;;;;;;37.67;16.02;;;;;;;;;;5057373;28;20185;-64
2024/03/11 09:47:55;;;;;;;38.22;15.85;;;;;;;;;;5056679;28;20070;-65
2024/03/11 09:50:26;;;;;;;34.08;14.00;;;;;;;;;;5058830;28;20118;-64
2024/03/11 09:52:56;;;;;;;32.90;14.25;;;;;;;;;;5046022;28;20113;-64
2024/03/11 09:55:28;;;;;;;35.65;14.98;;;;;;;;;;5052050;28;20056;-65
2024/03/11 09:57:58;;;;;;;41.47;16.27;;;;;;;;;;5059098;28;20052;-65
2024/03/11 10:00:27;;;;;;;40.95;15.57;;;;;;;;;;5057942;28;20052;-65
2024/03/11 10:02:59;;;;;;;56.00;23.58;;;;;;;;;;5052514;28;20351;-65
2024/03/11 10:05:30;;;;;;;40.25;18.33;;;;;;;;;;5051469;28;20064;-66
2024/03/11 10:07:58;;;;;;;35.45;16.73;;;;;;;;;;5056117;28;20083;-65
2024/03/11 10:10:26;;;;;;;36.78;15.20;;;;;;;;;;5074067;28;20060;-65
2024/03/11 10:12:58;;;;;;;36.20;14.65;;;;;;;;;;5050989;28;20127;-65
2024/03/11 10:15:30;;;;;;;29.33;13.65;;;;;;;;;;5049072;28;20075;-66
2024/03/11 10:18:25;;;;;;;36.58;14.25;;;;;;;;;;5072155;28;20052;-66
2024/03/11 10:20:57;;;;;;;28.80;12.88;;;;;;;;;;5059426;28;20049;-65
2024/03/11 10:23:26;;;;;;;33.42;13.30;;;;;;;;;;5041764;28;20056;-65
2024/03/11 10:26:12;;;;;;;30.77;13.57;;;;;;;;;;5055264;28;20052;-65
2024/03/11 10:28:40;;;;;;;29.10;13.93;;;;;;;;;;5059331;28;20060;-67
2024/03/11 10:31:24;;;;;;;34.20;14.13;;;;;;;;;;5047985;28;20071;-68
2024/03/11 10:34:09;;;;;;;32.80;13.05;;;;;;;;;;5060576;28;20139;-67
2024/03/11 10:36:39;;;;;;;33.15;14.63;;;;;;;;;;5060035;28;20059;-67
2024/03/11 10:39:09;;;;;;;34.45;14.43;;;;;;;;;;5060829;28;20121;-67
2024/03/11 10:41:38;;;;;;;44.70;18.38;;;;;;;;;;5048556;28;20044;-64
2024/03/11 10:44:16;;;;;;;43.65;19.52;;;;;;;;;;5059111;28;20064;-67
2024/03/11 10:46:43;;;;;;;39.20;15.40;;;;;;;;;;5056894;28;20060;-67
2024/03/11 10:49:15;;;;;;;37.10;15.32;;;;;;;;;;5061844;28;20051;-67
2024/03/11 10:51:45;;;;;;;33.38;14.00;;;;;;;;;;5023172;28;20052;-67
2024/03/11 10:54:22;;;;;;;35.50;14.55;;;;;;;;;;5045987;28;20076;-67
2024/03/11 10:56:52;;;;;;;32.30;13.25;;;;;;;;;;5059485;28;20153;-67
2024/03/11 10:59:26;;;;;;;34.42;14.40;;;;;;;;;;5056404;28;20048;-66
2024/03/11 11:01:58;;;;;;;38.17;14.20;;;;;;;;;;5032227;28;20060;-66
2024/03/11 11:04:30;;;;;;;31.00;13.93;;;;;;;;;;5047728;28;20098;-66
2024/03/11 11:06:59;;;;;;;32.10;14.23;;;;;;;;;;5057817;28;20047;-66
2024/03/11 11:09:27;;;;;;;33.95;14.10;;;;;;;;;;5053684;28;20061;-66
2024/03/11 11:11:55;;;;;;;29.45;13.00;;;;;;;;;;5042667;28;20056;-67
2024/03/11 11:14:24;;;;;;;34.53;14.85;;;;;;;;;;5060706;28;20055;-66
2024/03/11 11:16:52;;;;;;;34.17;13.75;;;;;;;;;;5059580;28;20063;-66
2024/03/11 11:19:28;;;;;;;39.97;17.58;;;;;;;;;;5054618;28;20060;-66
2024/03/11 11:21:56;;;;;;;39.75;16.90;;;;;;;;;;5049676;28;20072;-66
2024/03/11 11:24:26;;;;;;;38.70;15.73;;;;;;;;;;5058314;28;20063;-66
2024/03/11 11:26:55;;;;;;;36.13;15.13;;;;;;;;;;5060055;28;20055;-66
2024/03/11 11:29:27;;;;;;;37.85;15.18;;;;;;;;;;5070141;28;20053;-66
2024/03/11 11:32:06;;;;;;;34.45;14.88;;;;;;;;;;5042940;28;21018;-66
2024/03/11 11:34:48;;;;;;;31.58;13.07;;;;;;;;;;5055236;28;20113;-66
2024/03/11 11:37:39;;;;;;;34.42;13.90;;;;;;;;;;5071150;28;20051;-65
2024/03/11 11:40:33;;;;;;;32.45;12.82;;;;;;;;;;5054612;28;20059;-66
2024/03/11 11:43:01;;;;;;;36.00;14.35;;;;;;;;;;5039137;28;20079;-66
2024/03/11 11:45:54;;;;;;;31.60;13.50;;;;;;;;;;5048761;28;20063;-67
2024/03/11 11:48:25;;;;;;;31.88;13.43;;;;;;;;;;5051830;28;20055;-66
2024/03/11 11:50:57;;;;;;;35.80;14.93;;;;;;;;;;5057620;28;20056;-66
2024/03/11 11:53:29;;;;;;;34.78;14.50;;;;;;;;;;5005945;28;20051;-65
2024/03/11 11:55:56;;;;;;;30.33;13.45;;;;;;;;;;5056050;28;20073;-65
2024/03/11 11:58:25;;;;;;;35.38;14.25;;;;;;;;;;5057055;28;20048;-65
2024/03/11 12:01:00;;;;;;;33.33;13.80;;;;;;;;;;5060335;28;20068;-65
2024/03/11 12:03:32;;;;;;;33.58;14.10;;;;;;;;;;5003327;28;20056;-65
2024/03/11 12:06:11;;;;;;;33.15;14.32;;;;;;;;;;5055582;28;20063;-66
2024/03/11 12:08:41;;;;;;;38.17;15.35;;;;;;;;;;5059062;28;20138;-66
2024/03/11 12:11:15;;;;;;;32.20;14.55;;;;;;;;;;5060244;28;20068;-66
2024/03/11 12:13:44;;;;;;;32.25;13.65;;;;;;;;;;5041623;28;20067;-66
2024/03/11 12:16:13;;;;;;;31.63;13.32;;;;;;;;;;5073847;28;20508;-66
2024/03/11 12:18:42;;;;;;;33.05;14.68;;;;;;;;;;5057176;28;20754;-66
2024/03/11 12:21:15;;;;;;;57.65;23.45;;;;;;;;;;5058317;28;20059;-65
2024/03/11 12:23:43;;;;;;;39.33;17.88;;;;;;;;;;5038423;28;20898;-66
2024/03/11 12:26:15;;;;;;;34.88;14.63;;;;;;;;;;5056759;28;20056;-65
2024/03/11 12:29:01;;;;;;;30.42;13.52;;;;;;;;;;5054852;28;20065;-65
2024/03/11 12:31:32;;;;;;;31.88;14.30;;;;;;;;;;5050639;28;20088;-65
2024/03/11 12:34:01;;;;;;;39.70;14.93;;;;;;;;;;5033895;28;20097;-65
2024/03/11 12:36:30;;;;;;;;;;;;;;;;;;5058518;28;20279;-65
2024/03/11 12:39:00;;;;;;;28.27;12.18;;;;;;;;;;5060055;28;19923;-66
2024/03/11 12:41:40;;;;;;;28.88;11.25;;;;;;;;;;5049294;28;20059;-65
2024/03/11 12:44:16;;;;;;;28.00;11.70;;;;;;;;;;5018605;28;20084;-64
2024/03/11 12:46:50;;;;;;;28.60;12.40;;;;;;;;;;5056797;28;20051;-65
2024/03/11 12:49:20;;;;;;;32.92;12.77;;;;;;;;;;5057226;28;20060;-65
2024/03/11 12:51:53;;;;;;;34.42;13.95;;;;;;;;;;5033973;28;20063;-65
2024/03/11 12:54:23;;;;;;;30.88;12.82;;;;;;;;;;5056865;28;20088;-65
2024/03/11 12:57:07;;;;;;;33.13;13.73;;;;;;;;;;5057031;28;20140;-65
2024/03/11 12:59:35;;;;;;;35.42;13.30;;;;;;;;;;5048607;28;20051;-66
2024/03/11 13:02:15;;;;;;;42.13;17.77;;;;;;;;;;5008813;28;20048;-65
2024/03/11 13:04:44;;;;;;;43.22;16.42;;;;;;;;;;5035655;28;20060;-64
2024/03/11 13:07:14;;;;;;;32.83;14.38;;;;;;;;;;5059347;28;20043;-66
2024/03/11 13:09:43;;;;;;;34.90;15.10;;;;;;;;;;5052002;28;20195;-65
2024/03/11 13:12:17;;;;;;;36.20;14.10;;;;;;;;;;5046398;28;20060;-65
2024/03/11 13:14:45;;;;;;;37.90;14.45;;;;;;;;;;5056247;28;20062;-66
2024/03/11 13:17:14;;;;;;;32.85;13.85;;;;;;;;;;5057023;28;20075;-65
2024/03/11 13:19:45;;;;;;;31.80;14.10;;;;;;;;;;5052087;28;20048;-65
2024/03/11 13:22:18;;;;;;;33.58;13.80;;;;;;;;;;5045544;28;20061;-65
2024/03/11 13:24:48;;;;;;;34.90;13.38;;;;;;;;;;5048348;28;20052;-66
2024/03/11 13:27:18;;;;;;;31.73;14.23;;;;;;;;;;5056578;28;20057;-66
2024/03/11 13:29:46;;;;;;;30.52;12.93;;;;;;;;;;5053271;28;20570;-65
2024/03/11 13:32:13;;;;;;;27.23;12.65;;;;;;;;;;5053736;28;20056;-66
2024/03/11 13:34:40;;;;;;;31.70;12.68;;;;;;;;;;5056959;28;20115;-66
2024/03/11 13:37:07;;;;;;;27.25;12.63;;;;;;;;;;5055676;28;20060;-66
2024/03/11 13:39:38;;;;;;;30.10;12.70;;;;;;;;;;5051413;28;20072;-66
2024/03/11 13:42:09;;;;;;;29.48;12.95;;;;;;;;;;5024420;28;20060;-66
2024/03/11 13:44:37;;;;;;;32.17;13.23;;;;;;;;;;5044828;28;20056;-65
2024/03/11 13:47:06;;;;;;;30.48;13.02;;;;;;;;;;5055582;28;20138;-67
2024/03/11 13:49:33;;;;;;;32.67;13.05;;;;;;;;;;5050676;28;20056;-65
2024/03/11 13:52:01;;;;;;;31.75;14.05;;;;;;;;;;5057872;28;20086;-65
2024/03/11 13:54:28;;;;;;;33.20;13.67;;;;;;;;;;5020525;28;20056;-65
2024/03/11 13:56:55;;;;;;;33.28;14.00;;;;;;;;;;5059436;28;20472;-65
2024/03/11 13:59:28;;;;;;;29.42;12.85;;;;;;;;;;5054390;28;20040;-65
2024/03/11 14:01:57;;;;;;;31.90;13.73;;;;;;;;;;5042108;28;20139;-65
2024/03/11 14:04:26;;;;;;;43.97;18.30;;;;;;;;;;5061511;28;20280;-66
2024/03/11 14:06:52;;;;;;;29.38;13.85;;;;;;;;;;5057563;28;20056;-65
2024/03/11 14:09:20;;;;;;;31.33;13.48;;;;;;;;;;5057359;28;20181;-64
2024/03/11 14:11:49;;;;;;;35.83;13.90;;;;;;;;;;5055534;28;20139;-67
2024/03/11 14:14:23;;;;;;;33.20;14.02;;;;;;;;;;5030802;28;20059;-67
2024/03/11 14:16:57;;;;;;;30.77;12.10;;;;;;;;;;5059706;28;20056;-64
2024/03/11 14:19:27;;;;;;;26.33;11.75;;;;;;;;;;5050250;28;20089;-66
2024/03/11 14:22:06;;;;;;;28.42;12.98;;;;;;;;;;5060054;28;20079;-66
2024/03/11 14:24:38;;;;;;;28.67;12.32;;;;;;;;;;4999194;28;20139;-65
2024/03/11 14:27:06;;;;;;;25.77;10.75;;;;;;;;;;5056742;28;20052;-64
2024/03/11 14:29:38;;;;;;;26.38;12.23;;;;;;;;;;5052019;28;20072;-66
2024/03/11 14:32:10;;;;;;;27.75;11.70;;;;;;;;;;5059586;28;20191;-65
2024/03/11 14:34:37;;;;;;;28.08;13.02;;;;;;;;;;5033860;28;20048;-65